sensor_id;sensor_type;location;lat;lon;timestamp;pressure;altitude;pressure_sealevel;temperature;humidity
68941;BME280;55982;51.476;7.552;2023-08-24T00:00:39;100067.03;;;17.51;100.00
68941;BME280;55982;51.476;7.552;2023-08-24T00:03:04;100063.00;;;17.44;100.00
68941;BME280;55982;51.476;7.552;2023-08-24T00:05:33;100062.03;;;17.45;100.00
68941;BME280;55982;51.476;7.552;2023-08-24T00:08:00;100059.75;;;17.39;100.00
68941;BME280;55982;51.476;7.552;2023-08-24T00:10:25;100058.06;;;17.38;100.00
68941;BME280;55982;51.476;7.552;2023-08-24T00:12:51;100055.31;;;17.39;100.00
68941;BME280;55982;51.476;7.552;2023-08-24T00:15:16;100058.06;;;17.38;100.00
68941;BME280;55982;51.476;7.552;2023-08-24T00:17:41;100040.66;;;17.34;100.00
68941;BME280;55982;51.476;7.552;2023-08-24T00:20:07;100042.53;;;17.32;100.00
68941;BME280;55982;51.476;7.552;2023-08-24T00:22:36;100042.34;;;17.35;100.00
68941;BME280;55982;51.476;7.552;2023-08-24T00:25:02;100042.53;;;17.32;100.00
68941;BME280;55982;51.476;7.552;2023-08-24T00:27:27;100037.41;;;17.29;100.00
68941;BME280;55982;51.476;7.552;2023-08-24T00:29:53;100040.00;;;17.15;100.00
68941;BME280;55982;51.476;7.552;2023-08-24T00:32:18;100037.59;;;16.95;100.00
68941;BME280;55982;51.476;7.552;2023-08-24T00:34:44;100043.59;;;16.83;100.00
68941;BME280;55982;51.476;7.552;2023-08-24T00:37:10;100032.84;;;16.86;100.00
68941;BME280;55982;51.476;7.552;2023-08-24T00:39:35;100034.69;;;16.84;100.00
68941;BME280;55982;51.476;7.552;2023-08-24T00:42:00;100030.75;;;16.75;100.00
68941;BME280;55982;51.476;7.552;2023-08-24T00:44:26;100040.84;;;16.69;100.00
68941;BME280;55982;51.476;7.552;2023-08-24T00:46:51;100047.66;;;16.73;100.00
68941;BME280;55982;51.476;7.552;2023-08-24T00:49:17;100043.81;;;16.63;100.00
68941;BME280;55982;51.476;7.552;2023-08-24T00:51:42;100036.38;;;16.54;100.00
68941;BME280;55982;51.476;7.552;2023-08-24T00:54:08;100040.25;;;16.46;100.00
68941;BME280;55982;51.476;7.552;2023-08-24T00:56:33;100031.88;;;16.56;100.00
68941;BME280;55982;51.476;7.552;2023-08-24T00:58:59;100035.28;;;16.58;100.00
68941;BME280;55982;51.476;7.552;2023-08-24T01:01:24;100027.38;;;16.58;100.00
68941;BME280;55982;51.476;7.552;2023-08-24T01:03:50;100033.13;;;16.48;100.00
68941;BME280;55982;51.476;7.552;2023-08-24T01:06:15;100020.28;;;16.41;100.00
68941;BME280;55982;51.476;7.552;2023-08-24T01:08:41;100017.41;;;16.45;100.00
68941;BME280;55982;51.476;7.552;2023-08-24T01:11:25;100021.31;;;16.56;100.00
68941;BME280;55982;51.476;7.552;2023-08-24T01:16:58;100029.50;;;16.67;100.00
68941;BME280;55982;51.476;7.552;2023-08-24T01:21:56;100025.13;;;16.66;100.00
68941;BME280;55982;51.476;7.552;2023-08-24T01:24:39;100022.94;;;16.74;100.00
68941;BME280;55982;51.476;7.552;2023-08-24T01:27:06;100020.91;;;16.79;100.00
68941;BME280;55982;51.476;7.552;2023-08-24T01:29:33;100024.13;;;16.84;100.00
68941;BME280;55982;51.476;7.552;2023-08-24T01:31:58;100018.66;;;16.87;100.00
68941;BME280;55982;51.476;7.552;2023-08-24T01:34:24;100029.00;;;16.91;100.00
68941;BME280;55982;51.476;7.552;2023-08-24T01:36:49;100021.75;;;16.95;100.00
68941;BME280;55982;51.476;7.552;2023-08-24T01:39:46;100013.72;;;16.96;100.00
68941;BME280;55982;51.476;7.552;2023-08-24T01:42:10;100004.75;;;16.68;100.00
68941;BME280;55982;51.476;7.552;2023-08-24T01:44:42;99990.53;;;16.55;100.00
68941;BME280;55982;51.476;7.552;2023-08-24T01:47:09;100000.03;;;16.41;100.00
68941;BME280;55982;51.476;7.552;2023-08-24T01:49:37;99995.75;;;16.39;100.00
68941;BME280;55982;51.476;7.552;2023-08-24T01:52:04;100002.50;;;16.44;100.00
68941;BME280;55982;51.476;7.552;2023-08-24T01:54:30;100010.13;;;16.51;100.00
68941;BME280;55982;51.476;7.552;2023-08-24T01:56:56;100004.84;;;16.51;100.00
68941;BME280;55982;51.476;7.552;2023-08-24T01:59:21;99993.78;;;16.60;100.00
68941;BME280;55982;51.476;7.552;2023-08-24T02:01:47;99990.03;;;16.64;100.00
68941;BME280;55982;51.476;7.552;2023-08-24T02:04:12;99986.25;;;16.52;100.00
68941;BME280;55982;51.476;7.552;2023-08-24T02:06:37;99985.44;;;16.52;100.00
68941;BME280;55982;51.476;7.552;2023-08-24T02:09:03;99987.31;;;16.50;100.00
68941;BME280;55982;51.476;7.552;2023-08-24T02:11:28;99989.66;;;16.54;100.00
68941;BME280;55982;51.476;7.552;2023-08-24T02:13:53;99989.53;;;16.57;100.00
68941;BME280;55982;51.476;7.552;2023-08-24T02:16:19;99990.88;;;16.64;100.00
68941;BME280;55982;51.476;7.552;2023-08-24T02:18:44;99992.31;;;16.70;100.00
68941;BME280;55982;51.476;7.552;2023-08-24T02:21:10;99985.25;;;16.55;100.00
68941;BME280;55982;51.476;7.552;2023-08-24T02:23:37;99979.78;;;16.42;100.00
68941;BME280;55982;51.476;7.552;2023-08-24T02:26:03;99979.09;;;16.38;100.00
68941;BME280;55982;51.476;7.552;2023-08-24T02:28:29;99972.41;;;16.31;100.00
68941;BME280;55982;51.476;7.552;2023-08-24T02:30:54;99972.25;;;16.34;100.00
68941;BME280;55982;51.476;7.552;2023-08-24T02:33:20;99971.94;;;16.40;100.00
68941;BME280;55982;51.476;7.552;2023-08-24T02:35:48;99973.16;;;16.51;100.00
68941;BME280;55982;51.476;7.552;2023-08-24T02:38:13;99971.13;;;16.56;100.00
68941;BME280;55982;51.476;7.552;2023-08-24T02:40:38;99969.94;;;16.61;100.00
68941;BME280;55982;51.476;7.552;2023-08-24T02:43:04;99978.44;;;16.66;100.00
68941;BME280;55982;51.476;7.552;2023-08-24T02:45:29;99970.25;;;16.55;100.00
68941;BME280;55982;51.476;7.552;2023-08-24T02:47:54;99989.19;;;16.63;100.00
68941;BME280;55982;51.476;7.552;2023-08-24T02:50:20;99983.84;;;16.47;100.00
68941;BME280;55982;51.476;7.552;2023-08-24T02:52:45;99982.31;;;16.43;100.00
68941;BME280;55982;51.476;7.552;2023-08-24T02:55:11;99981.63;;;16.40;100.00
68941;BME280;55982;51.476;7.552;2023-08-24T02:57:36;99976.59;;;16.35;100.00
68941;BME280;55982;51.476;7.552;2023-08-24T03:00:03;99964.41;;;16.17;100.00
68941;BME280;55982;51.476;7.552;2023-08-24T03:02:28;99963.31;;;16.04;100.00
68941;BME280;55982;51.476;7.552;2023-08-24T03:04:54;99963.66;;;15.98;100.00
68941;BME280;55982;51.476;7.552;2023-08-24T03:07:20;99971.25;;;16.04;100.00
68941;BME280;55982;51.476;7.552;2023-08-24T03:09:46;99975.09;;;16.14;100.00
68941;BME280;55982;51.476;7.552;2023-08-24T03:12:11;99976.81;;;16.15;100.00
68941;BME280;55982;51.476;7.552;2023-08-24T03:14:37;99978.53;;;16.16;100.00
68941;BME280;55982;51.476;7.552;2023-08-24T03:17:03;99981.47;;;16.10;100.00
68941;BME280;55982;51.476;7.552;2023-08-24T03:19:29;99977.97;;;16.10;100.00
68941;BME280;55982;51.476;7.552;2023-08-24T03:21:55;99971.88;;;16.09;100.00
68941;BME280;55982;51.476;7.552;2023-08-24T03:24:20;99977.97;;;16.10;100.00
68941;BME280;55982;51.476;7.552;2023-08-24T03:26:45;99984.66;;;16.17;100.00
68941;BME280;55982;51.476;7.552;2023-08-24T03:29:11;99980.41;;;16.30;100.00
68941;BME280;55982;51.476;7.552;2023-08-24T03:31:36;99978.38;;;16.35;100.00
68941;BME280;55982;51.476;7.552;2023-08-24T03:34:01;99976.56;;;16.53;100.00
68941;BME280;55982;51.476;7.552;2023-08-24T03:36:29;99972.66;;;16.60;100.00
68941;BME280;55982;51.476;7.552;2023-08-24T03:38:54;99965.66;;;16.59;100.00
68941;BME280;55982;51.476;7.552;2023-08-24T03:41:19;99972.47;;;16.63;100.00
68941;BME280;55982;51.476;7.552;2023-08-24T03:43:45;99967.09;;;16.64;100.00
68941;BME280;55982;51.476;7.552;2023-08-24T03:46:10;99969.94;;;16.77;100.00
68941;BME280;55982;51.476;7.552;2023-08-24T03:48:36;99964.56;;;16.94;100.00
68941;BME280;55982;51.476;7.552;2023-08-24T03:51:01;99960.16;;;17.08;100.00
68941;BME280;55982;51.476;7.552;2023-08-24T03:53:26;99942.75;;;17.20;100.00
68941;BME280;55982;51.476;7.552;2023-08-24T03:55:52;99941.72;;;17.22;100.00
68941;BME280;55982;51.476;7.552;2023-08-24T03:58:18;99941.50;;;17.41;100.00
68941;BME280;55982;51.476;7.552;2023-08-24T04:00:44;99930.63;;;17.61;100.00
68941;BME280;55982;51.476;7.552;2023-08-24T04:03:09;99926.69;;;17.82;100.00
68941;BME280;55982;51.476;7.552;2023-08-24T04:05:35;99945.00;;;17.85;100.00
68941;BME280;55982;51.476;7.552;2023-08-24T04:08:00;99950.69;;;17.93;100.00
68941;BME280;55982;51.476;7.552;2023-08-24T04:10:26;99955.19;;;17.77;100.00
68941;BME280;55982;51.476;7.552;2023-08-24T04:12:52;99969.75;;;17.70;100.00
68941;BME280;55982;51.476;7.552;2023-08-24T04:15:17;99982.56;;;17.62;100.00
68941;BME280;55982;51.476;7.552;2023-08-24T04:17:43;99992.69;;;17.56;100.00
68941;BME280;55982;51.476;7.552;2023-08-24T04:20:09;99995.34;;;17.56;100.00
68941;BME280;55982;51.476;7.552;2023-08-24T04:22:35;99994.56;;;17.54;100.00
68941;BME280;55982;51.476;7.552;2023-08-24T04:25:00;99995.78;;;17.48;100.00
68941;BME280;55982;51.476;7.552;2023-08-24T04:27:26;99992.69;;;17.40;100.00
68941;BME280;55982;51.476;7.552;2023-08-24T04:29:51;99988.09;;;17.28;100.00
68941;BME280;55982;51.476;7.552;2023-08-24T04:32:17;99976.41;;;17.32;100.00
68941;BME280;55982;51.476;7.552;2023-08-24T04:34:42;99967.63;;;17.31;100.00
68941;BME280;55982;51.476;7.552;2023-08-24T04:37:08;99957.34;;;17.41;100.00
68941;BME280;55982;51.476;7.552;2023-08-24T04:39:36;99958.56;;;17.51;100.00
68941;BME280;55982;51.476;7.552;2023-08-24T04:42:02;99955.19;;;17.63;100.00
68941;BME280;55982;51.476;7.552;2023-08-24T04:44:28;99950.25;;;17.71;100.00
68941;BME280;55982;51.476;7.552;2023-08-24T04:46:53;99938.09;;;17.83;100.00
68941;BME280;55982;51.476;7.552;2023-08-24T04:49:18;99939.25;;;17.93;100.00
68941;BME280;55982;51.476;7.552;2023-08-24T04:51:44;99938.69;;;18.02;100.00
68941;BME280;55982;51.476;7.552;2023-08-24T04:54:09;99936.41;;;18.10;100.00
68941;BME280;55982;51.476;7.552;2023-08-24T04:56:35;99934.06;;;18.05;100.00
68941;BME280;55982;51.476;7.552;2023-08-24T04:59:00;99936.13;;;18.00;100.00
68941;BME280;55982;51.476;7.552;2023-08-24T05:01:27;99936.69;;;17.91;100.00
68941;BME280;55982;51.476;7.552;2023-08-24T05:03:53;99931.09;;;17.82;100.00
68941;BME280;55982;51.476;7.552;2023-08-24T05:06:20;99943.38;;;17.69;100.00
68941;BME280;55982;51.476;7.552;2023-08-24T05:08:46;99949.13;;;17.61;100.00
68941;BME280;55982;51.476;7.552;2023-08-24T05:11:17;99949.66;;;17.52;100.00
68941;BME280;55982;51.476;7.552;2023-08-24T05:13:43;99947.03;;;17.52;100.00
68941;BME280;55982;51.476;7.552;2023-08-24T05:16:10;99948.16;;;17.48;100.00
68941;BME280;55982;51.476;7.552;2023-08-24T05:18:35;99939.44;;;17.46;100.00
68941;BME280;55982;51.476;7.552;2023-08-24T05:21:02;99923.72;;;17.43;100.00
68941;BME280;55982;51.476;7.552;2023-08-24T05:23:28;99904.66;;;17.38;100.00
68941;BME280;55982;51.476;7.552;2023-08-24T05:25:54;99901.50;;;17.31;100.00
68941;BME280;55982;51.476;7.552;2023-08-24T05:28:19;99903.50;;;17.28;100.00
68941;BME280;55982;51.476;7.552;2023-08-24T05:30:44;99912.75;;;17.21;100.00
68941;BME280;55982;51.476;7.552;2023-08-24T05:33:10;99922.56;;;17.19;100.00
68941;BME280;55982;51.476;7.552;2023-08-24T05:35:35;99919.31;;;17.14;100.00
68941;BME280;55982;51.476;7.552;2023-08-24T05:38:01;99919.31;;;17.14;100.00
68941;BME280;55982;51.476;7.552;2023-08-24T05:40:26;99916.84;;;17.11;100.00
68941;BME280;55982;51.476;7.552;2023-08-24T05:42:51;99912.03;;;17.17;100.00
68941;BME280;55982;51.476;7.552;2023-08-24T05:45:18;99910.91;;;17.21;100.00
68941;BME280;55982;51.476;7.552;2023-08-24T05:47:43;99900.09;;;17.26;100.00
68941;BME280;55982;51.476;7.552;2023-08-24T05:50:09;99897.25;;;17.29;100.00
68941;BME280;55982;51.476;7.552;2023-08-24T05:52:36;99880.63;;;17.27;100.00
68941;BME280;55982;51.476;7.552;2023-08-24T05:55:02;99878.63;;;17.16;100.00
68941;BME280;55982;51.476;7.552;2023-08-24T05:57:27;99874.00;;;17.20;100.00
68941;BME280;55982;51.476;7.552;2023-08-24T05:59:53;99866.06;;;17.20;100.00
68941;BME280;55982;51.476;7.552;2023-08-24T06:02:18;99862.50;;;17.21;100.00
68941;BME280;55982;51.476;7.552;2023-08-24T06:04:43;99856.09;;;17.25;100.00
68941;BME280;55982;51.476;7.552;2023-08-24T06:07:09;99843.59;;;17.27;100.00
68941;BME280;55982;51.476;7.552;2023-08-24T06:09:34;99846.28;;;17.41;100.00
68941;BME280;55982;51.476;7.552;2023-08-24T06:11:59;99830.25;;;17.44;100.00
68941;BME280;55982;51.476;7.552;2023-08-24T06:14:25;99828.34;;;17.46;100.00
68941;BME280;55982;51.476;7.552;2023-08-24T06:16:50;99826.13;;;17.38;100.00
68941;BME280;55982;51.476;7.552;2023-08-24T06:19:18;99833.63;;;17.46;100.00
68941;BME280;55982;51.476;7.552;2023-08-24T06:21:43;99821.00;;;17.51;100.00
68941;BME280;55982;51.476;7.552;2023-08-24T06:24:09;99817.69;;;17.62;100.00
68941;BME280;55982;51.476;7.552;2023-08-24T06:26:35;99818.16;;;17.68;100.00
68941;BME280;55982;51.476;7.552;2023-08-24T06:29:00;99814.44;;;17.85;100.00
68941;BME280;55982;51.476;7.552;2023-08-24T06:31:25;99807.75;;;17.93;100.00
68941;BME280;55982;51.476;7.552;2023-08-24T06:33:51;99801.69;;;18.05;100.00
68941;BME280;55982;51.476;7.552;2023-08-24T06:36:16;99799.38;;;18.13;100.00
68941;BME280;55982;51.476;7.552;2023-08-24T06:38:42;99785.22;;;18.27;100.00
68941;BME280;55982;51.476;7.552;2023-08-24T06:41:08;99778.56;;;18.48;100.00
68941;BME280;55982;51.476;7.552;2023-08-24T06:43:37;99774.41;;;18.71;100.00
68941;BME280;55982;51.476;7.552;2023-08-24T06:46:04;99761.94;;;18.98;100.00
68941;BME280;55982;51.476;7.552;2023-08-24T06:48:35;99772.84;;;19.31;100.00
68941;BME280;55982;51.476;7.552;2023-08-24T06:51:02;99778.06;;;19.70;100.00
68941;BME280;55982;51.476;7.552;2023-08-24T06:53:28;99787.72;;;20.07;100.00
68941;BME280;55982;51.476;7.552;2023-08-24T06:55:54;99777.53;;;20.61;100.00
68941;BME280;55982;51.476;7.552;2023-08-24T06:58:20;99781.50;;;20.56;100.00
68941;BME280;55982;51.476;7.552;2023-08-24T07:00:46;99783.00;;;20.71;100.00
68941;BME280;55982;51.476;7.552;2023-08-24T07:03:11;99785.25;;;20.88;100.00
68941;BME280;55982;51.476;7.552;2023-08-24T07:05:37;99785.53;;;20.38;100.00
68941;BME280;55982;51.476;7.552;2023-08-24T07:08:02;99785.53;;;20.38;100.00
68941;BME280;55982;51.476;7.552;2023-08-24T07:10:28;99802.69;;;20.57;100.00
68941;BME280;55982;51.476;7.552;2023-08-24T07:12:54;99804.28;;;20.71;100.00
68941;BME280;55982;51.476;7.552;2023-08-24T07:15:19;99803.88;;;21.23;100.00
68941;BME280;55982;51.476;7.552;2023-08-24T07:17:44;99783.88;;;21.06;100.00
68941;BME280;55982;51.476;7.552;2023-08-24T07:20:10;99777.66;;;21.62;100.00
68941;BME280;55982;51.476;7.552;2023-08-24T07:22:39;99778.50;;;22.61;100.00
68941;BME280;55982;51.476;7.552;2023-08-24T07:25:05;99769.72;;;23.11;100.00
68941;BME280;55982;51.476;7.552;2023-08-24T07:27:34;99779.94;;;23.47;100.00
68941;BME280;55982;51.476;7.552;2023-08-24T07:30:00;99785.88;;;23.91;100.00
68941;BME280;55982;51.476;7.552;2023-08-24T07:32:26;99773.63;;;23.88;100.00
68941;BME280;55982;51.476;7.552;2023-08-24T07:34:52;99777.47;;;23.65;100.00
68941;BME280;55982;51.476;7.552;2023-08-24T07:37:18;99776.88;;;24.41;100.00
68941;BME280;55982;51.476;7.552;2023-08-24T07:39:43;99775.75;;;23.54;100.00
68941;BME280;55982;51.476;7.552;2023-08-24T07:42:08;99776.56;;;24.25;100.00
68941;BME280;55982;51.476;7.552;2023-08-24T07:44:34;99776.34;;;24.47;100.00
68941;BME280;55982;51.476;7.552;2023-08-24T07:46:59;99778.69;;;25.73;100.00
68941;BME280;55982;51.476;7.552;2023-08-24T07:49:24;99773.22;;;26.46;100.00
68941;BME280;55982;51.476;7.552;2023-08-24T07:51:50;99766.56;;;26.50;100.00
68941;BME280;55982;51.476;7.552;2023-08-24T07:54:15;99769.78;;;26.09;100.00
68941;BME280;55982;51.476;7.552;2023-08-24T07:56:40;99770.38;;;26.12;100.00
68941;BME280;55982;51.476;7.552;2023-08-24T07:59:06;99762.19;;;25.41;100.00
68941;BME280;55982;51.476;7.552;2023-08-24T08:01:32;99762.50;;;26.64;100.00
68941;BME280;55982;51.476;7.552;2023-08-24T08:03:57;99754.88;;;27.38;100.00
68941;BME280;55982;51.476;7.552;2023-08-24T08:06:23;99762.63;;;25.73;100.00
68941;BME280;55982;51.476;7.552;2023-08-24T08:08:50;99755.16;;;26.83;100.00
68941;BME280;55982;51.476;7.552;2023-08-24T08:11:17;99749.41;;;27.47;100.00
68941;BME280;55982;51.476;7.552;2023-08-24T08:13:43;99746.53;;;28.24;100.00
68941;BME280;55982;51.476;7.552;2023-08-24T08:16:08;99752.25;;;28.13;100.00
68941;BME280;55982;51.476;7.552;2023-08-24T08:18:35;99747.59;;;28.39;100.00
68941;BME280;55982;51.476;7.552;2023-08-24T08:21:01;99736.56;;;28.58;100.00
68941;BME280;55982;51.476;7.552;2023-08-24T08:23:33;99737.53;;;29.30;100.00
68941;BME280;55982;51.476;7.552;2023-08-24T08:25:58;99743.97;;;28.80;100.00
68941;BME280;55982;51.476;7.552;2023-08-24T08:28:23;99747.63;;;29.36;100.00
68941;BME280;55982;51.476;7.552;2023-08-24T08:30:49;99746.47;;;29.06;100.00
68941;BME280;55982;51.476;7.552;2023-08-24T08:33:14;99753.06;;;28.71;100.00
68941;BME280;55982;51.476;7.552;2023-08-24T08:35:40;99762.41;;;28.35;100.00
68941;BME280;55982;51.476;7.552;2023-08-24T08:38:06;99753.22;;;28.94;100.00
68941;BME280;55982;51.476;7.552;2023-08-24T08:40:36;99763.13;;;30.35;93.49
68941;BME280;55982;51.476;7.552;2023-08-24T08:43:02;99752.22;;;30.97;81.53
68941;BME280;55982;51.476;7.552;2023-08-24T08:45:28;99745.94;;;30.28;98.71
68941;BME280;55982;51.476;7.552;2023-08-24T08:48:01;99734.69;;;29.15;100.00
68941;BME280;55982;51.476;7.552;2023-08-24T08:50:27;99731.94;;;30.55;99.46
68941;BME280;55982;51.476;7.552;2023-08-24T08:52:53;99716.53;;;30.79;91.90
68941;BME280;55982;51.476;7.552;2023-08-24T08:55:19;99720.66;;;30.29;91.06
68941;BME280;55982;51.476;7.552;2023-08-24T08:57:48;99713.84;;;29.64;100.00
68941;BME280;55982;51.476;7.552;2023-08-24T09:00:15;99719.63;;;30.22;96.12
68941;BME280;55982;51.476;7.552;2023-08-24T09:02:45;99714.16;;;30.84;99.97
68941;BME280;55982;51.476;7.552;2023-08-24T09:05:11;99712.97;;;31.38;83.13
68941;BME280;55982;51.476;7.552;2023-08-24T09:07:39;99719.97;;;31.91;80.74
68941;BME280;55982;51.476;7.552;2023-08-24T09:10:05;99712.34;;;30.99;87.45
68941;BME280;55982;51.476;7.552;2023-08-24T09:12:32;99712.41;;;32.22;96.77
68941;BME280;55982;51.476;7.552;2023-08-24T09:15:07;99708.44;;;32.03;86.91
68941;BME280;55982;51.476;7.552;2023-08-24T09:17:33;99707.91;;;31.35;88.72
68941;BME280;55982;51.476;7.552;2023-08-24T09:20:00;99712.41;;;32.43;88.00
68941;BME280;55982;51.476;7.552;2023-08-24T09:22:25;99704.50;;;29.36;100.00
68941;BME280;55982;51.476;7.552;2023-08-24T09:24:51;99692.94;;;30.35;95.14
68941;BME280;55982;51.476;7.552;2023-08-24T09:27:17;99689.97;;;30.14;95.21
68941;BME280;55982;51.476;7.552;2023-08-24T09:29:43;99681.50;;;30.25;100.00
68941;BME280;55982;51.476;7.552;2023-08-24T09:32:09;99676.03;;;31.45;89.34
68941;BME280;55982;51.476;7.552;2023-08-24T09:34:36;99678.53;;;31.61;84.63
68941;BME280;55982;51.476;7.552;2023-08-24T09:37:02;99667.69;;;30.65;86.20
68941;BME280;55982;51.476;7.552;2023-08-24T09:39:29;99643.53;;;30.04;100.00
68941;BME280;55982;51.476;7.552;2023-08-24T09:42:00;99633.53;;;30.73;98.42
68941;BME280;55982;51.476;7.552;2023-08-24T09:44:28;99631.28;;;30.99;86.12
68941;BME280;55982;51.476;7.552;2023-08-24T09:46:53;99622.59;;;30.51;96.51
68941;BME280;55982;51.476;7.552;2023-08-24T09:49:19;99619.72;;;30.08;85.97
68941;BME280;55982;51.476;7.552;2023-08-24T09:51:44;99622.41;;;31.84;79.91
68941;BME280;55982;51.476;7.552;2023-08-24T09:54:11;99624.66;;;33.48;67.21
68941;BME280;55982;51.476;7.552;2023-08-24T09:56:38;99608.53;;;32.51;77.48
68941;BME280;55982;51.476;7.552;2023-08-24T09:59:11;99601.91;;;32.81;76.67
68941;BME280;55982;51.476;7.552;2023-08-24T10:01:46;99594.09;;;32.44;82.58
68941;BME280;55982;51.476;7.552;2023-08-24T10:04:18;99600.69;;;31.78;77.89
68941;BME280;55982;51.476;7.552;2023-08-24T10:06:51;99602.25;;;32.44;73.76
68941;BME280;55982;51.476;7.552;2023-08-24T10:09:22;99603.69;;;31.18;74.71
68941;BME280;55982;51.476;7.552;2023-08-24T10:11:54;99590.88;;;32.12;76.22
68941;BME280;55982;51.476;7.552;2023-08-24T10:17:16;99604.34;;;31.70;98.46
68941;BME280;55982;51.476;7.552;2023-08-24T10:19:42;99615.00;;;32.28;79.24
68941;BME280;55982;51.476;7.552;2023-08-24T10:22:08;99639.59;;;33.31;68.55
68941;BME280;55982;51.476;7.552;2023-08-24T10:24:35;99638.38;;;32.78;73.54
68941;BME280;55982;51.476;7.552;2023-08-24T10:27:02;99652.16;;;31.99;67.17
68941;BME280;55982;51.476;7.552;2023-08-24T10:29:29;99655.16;;;33.22;64.23
68941;BME280;55982;51.476;7.552;2023-08-24T10:31:55;99651.09;;;33.80;64.32
68941;BME280;55982;51.476;7.552;2023-08-24T10:34:21;99648.19;;;34.62;60.80
68941;BME280;55982;51.476;7.552;2023-08-24T10:36:50;99648.06;;;32.94;67.04
68941;BME280;55982;51.476;7.552;2023-08-24T10:39:16;99648.38;;;33.80;67.05
68941;BME280;55982;51.476;7.552;2023-08-24T10:41:50;99645.81;;;33.32;71.37
68941;BME280;55982;51.476;7.552;2023-08-24T10:44:21;99648.91;;;32.03;76.45
68941;BME280;55982;51.476;7.552;2023-08-24T10:47:18;99644.41;;;32.53;67.04
68941;BME280;55982;51.476;7.552;2023-08-24T10:52:40;99624.00;;;32.35;88.65
68941;BME280;55982;51.476;7.552;2023-08-24T10:55:25;99630.84;;;32.31;75.74
68941;BME280;55982;51.476;7.552;2023-08-24T10:58:00;99628.38;;;32.79;71.44
68941;BME280;55982;51.476;7.552;2023-08-24T11:00:27;99611.25;;;32.78;85.35
68941;BME280;55982;51.476;7.552;2023-08-24T11:02:53;99615.63;;;31.38;77.05
68941;BME280;55982;51.476;7.552;2023-08-24T11:07:51;99619.38;;;32.51;72.80
68941;BME280;55982;51.476;7.552;2023-08-24T11:10:17;99615.47;;;32.81;79.67
68941;BME280;55982;51.476;7.552;2023-08-24T11:13:03;99599.91;;;31.98;72.76
68941;BME280;55982;51.476;7.552;2023-08-24T11:15:33;99613.91;;;32.44;76.18
68941;BME280;55982;51.476;7.552;2023-08-24T11:20:42;99613.00;;;33.13;79.80
68941;BME280;55982;51.476;7.552;2023-08-24T11:23:09;99615.09;;;33.52;68.52
68941;BME280;55982;51.476;7.552;2023-08-24T11:25:37;99607.09;;;33.44;76.33
68941;BME280;55982;51.476;7.552;2023-08-24T11:28:04;99605.97;;;32.42;73.31
68941;BME280;55982;51.476;7.552;2023-08-24T11:30:31;99613.19;;;32.57;69.97
68941;BME280;55982;51.476;7.552;2023-08-24T11:32:56;99602.88;;;33.35;70.92
68941;BME280;55982;51.476;7.552;2023-08-24T11:35:22;99600.34;;;33.68;66.10
68941;BME280;55982;51.476;7.552;2023-08-24T11:37:54;99587.41;;;33.89;66.61
68941;BME280;55982;51.476;7.552;2023-08-24T11:40:19;99578.13;;;34.31;69.08
68941;BME280;55982;51.476;7.552;2023-08-24T11:42:46;99571.84;;;34.44;70.28
68941;BME280;55982;51.476;7.552;2023-08-24T11:45:12;99570.91;;;33.71;62.52
68941;BME280;55982;51.476;7.552;2023-08-24T11:47:39;99552.06;;;33.50;65.53
68941;BME280;55982;51.476;7.552;2023-08-24T11:50:05;99543.16;;;32.88;66.36
68941;BME280;55982;51.476;7.552;2023-08-24T11:52:31;99549.50;;;32.74;66.20
68941;BME280;55982;51.476;7.552;2023-08-24T11:55:00;99552.50;;;32.85;66.94
68941;BME280;55982;51.476;7.552;2023-08-24T11:57:26;99551.63;;;33.06;65.76
68941;BME280;55982;51.476;7.552;2023-08-24T11:59:53;99545.09;;;32.38;68.60
68941;BME280;55982;51.476;7.552;2023-08-24T12:02:20;99543.81;;;32.34;75.57
68941;BME280;55982;51.476;7.552;2023-08-24T12:04:48;99549.34;;;32.26;76.26
68941;BME280;55982;51.476;7.552;2023-08-24T12:07:14;99542.78;;;32.14;70.47
68941;BME280;55982;51.476;7.552;2023-08-24T12:09:43;99545.88;;;31.90;74.04
68941;BME280;55982;51.476;7.552;2023-08-24T12:12:14;99546.25;;;31.87;73.37
68941;BME280;55982;51.476;7.552;2023-08-24T12:14:41;99550.84;;;31.51;71.94
68941;BME280;55982;51.476;7.552;2023-08-24T12:17:07;99544.75;;;31.99;75.43
68941;BME280;55982;51.476;7.552;2023-08-24T12:19:32;99546.22;;;32.23;72.14
68941;BME280;55982;51.476;7.552;2023-08-24T12:21:58;99544.84;;;32.12;74.40
68941;BME280;55982;51.476;7.552;2023-08-24T12:24:23;99561.84;;;31.64;73.11
68941;BME280;55982;51.476;7.552;2023-08-24T12:26:55;99557.72;;;31.68;74.56
68941;BME280;55982;51.476;7.552;2023-08-24T12:29:22;99543.66;;;31.37;74.88
68941;BME280;55982;51.476;7.552;2023-08-24T12:31:47;99550.28;;;31.56;74.22
68941;BME280;55982;51.476;7.552;2023-08-24T12:34:14;99549.19;;;31.50;74.67
68941;BME280;55982;51.476;7.552;2023-08-24T12:36:40;99537.34;;;31.72;78.81
68941;BME280;55982;51.476;7.552;2023-08-24T12:39:07;99535.97;;;31.97;74.77
68941;BME280;55982;51.476;7.552;2023-08-24T12:41:35;99539.81;;;31.67;79.01
68941;BME280;55982;51.476;7.552;2023-08-24T12:44:01;99519.72;;;31.97;74.01
68941;BME280;55982;51.476;7.552;2023-08-24T12:46:30;99528.34;;;32.28;75.42
68941;BME280;55982;51.476;7.552;2023-08-24T12:48:56;99517.78;;;32.12;77.17
68941;BME280;55982;51.476;7.552;2023-08-24T12:51:21;99512.06;;;32.84;75.06
68941;BME280;55982;51.476;7.552;2023-08-24T12:53:47;99505.28;;;32.67;73.86
68941;BME280;55982;51.476;7.552;2023-08-24T12:56:12;99490.63;;;32.27;72.78
68941;BME280;55982;51.476;7.552;2023-08-24T12:58:38;99484.81;;;31.81;72.96
68941;BME280;55982;51.476;7.552;2023-08-24T13:01:03;99488.94;;;31.77;75.68
68941;BME280;55982;51.476;7.552;2023-08-24T13:03:28;99482.47;;;31.78;76.26
68941;BME280;55982;51.476;7.552;2023-08-24T13:05:54;99470.31;;;31.32;77.42